Bookmark and Share
Track history (hours):
 

Drifting buoy 56564

Last reported at 2013-Jun-08 09:30 UTC. Time now 2014-Apr-18 10:46 UTC.
Position S 34°33' E 063°25'.
Warning: this ship's position is months out of date.

Water temperature 17.5 ° C

NotesDate/timePositionNaut miles runAvg speedWind from/ knotsBaromVisibWave heightAir tempDewpointWater temp
2013-Jun-08 09:30S 34°33' E 063°25'4 1.1 17.5
2013-Jun-08 05:30S 34°34' E 063°20'0 0.0 17.6
2013-Jun-08 04:30S 34°34' E 063°20'5 4.6 17.6
2013-Jun-08 03:30S 34°39' E 063°21'1 0.4 17.6
2013-Jun-08 00:30S 34°39' E 063°20'0 0.0 17.6
2013-Jun-07 22:30S 34°39' E 063°20'1 1.3 17.6
2013-Jun-07 21:30S 34°40' E 063°20'1 0.5 17.6
2013-Jun-07 19:30S 34°41' E 063°20'0 0.5 17.6
2013-Jun-07 18:30S 34°41' E 063°19'2 0.8 17.6
2013-Jun-07 16:30S 34°43' E 063°19'2 0.3 17.6
2013-Jun-07 11:30S 34°44' E 063°18'5 0.6 17.6
2013-Jun-07 04:30S 34°49' E 063°17'1 0.4 17.5
2013-Jun-07 02:30S 34°49' E 063°17'1 0.7 17.4
2013-Jun-07 01:30S 34°50' E 063°16'2 0.5 17.4
2013-Jun-06 22:30S 34°51' E 063°15'2 0.3 17.4
2013-Jun-06 17:30S 34°52' E 063°13'0 0.0 17.5
2013-Jun-06 16:30S 34°52' E 063°13'1 0.7 17.5
2013-Jun-06 14:30S 34°53' E 063°13'0 0.2 17.5
2013-Jun-06 13:30S 34°53' E 063°12'0 0.0 17.5
2013-Jun-06 12:30S 34°53' E 063°12'1 0.8 17.5
2013-Jun-06 11:30S 34°53' E 063°12'2 1.0 17.5
2013-Jun-06 09:30S 34°54' E 063°09'0 0.2 17.6
2013-Jun-06 08:30S 34°54' E 063°09'2 0.3 17.6
2013-Jun-06 01:30S 34°52' E 063°10'1 0.7 17.6
2013-Jun-05 23:30S 34°51' E 063°09'1 0.7 17.6
2013-Jun-05 21:30S 34°51' E 063°07'1 1.5 17.5
2013-Jun-05 20:30S 34°51' E 063°09'0 0.0 1023.9 17.5
2013-Jun-05 19:30S 34°51' E 063°09'1 1.0 1023.9 17.5
2013-Jun-05 18:30S 34°51' E 063°10'0 0.0 1023.9 17.5
2013-Jun-05 17:30S 34°51' E 063°10'1 0.5 1023.9 17.5
2013-Jun-05 14:30S 34°51' E 063°11'1 0.2 1023.9 17.4
2013-Jun-05 10:30S 34°50' E 063°12'0 0.0 1023.9 17.2
2013-Jun-05 09:30S 34°50' E 063°12'2 1.7 1023.9 17.2
2013-Jun-05 08:30S 34°50' E 063°15'0 0.0 1023.9 17.2
2013-Jun-05 05:30S 34°51' E 063°15'2 0.5 1023.9 17.2
2013-Jun-05 02:30S 34°49' E 063°15'0 0.0 1023.9 17.2
2013-Jun-05 01:30S 34°49' E 063°15'0 0.0 1023.9 17.2
2013-Jun-05 00:30S 34°49' E 063°15'1 1.3 1023.9 17.2
2013-Jun-04 23:30S 34°50' E 063°16'0 0.3 1023.9 17.2
2013-Jun-04 22:30S 34°50' E 063°17'4 0.7 1023.9 17.2
2013-Jun-04 16:30S 34°52' E 063°21'0 0.0 1023.9 17.2
2013-Jun-04 13:30S 34°52' E 063°21'0 0.1 1023.9 17.1
2013-Jun-04 10:30S 34°52' E 063°21'0 0.0 1023.9 17.2
2013-Jun-04 09:30S 34°52' E 063°21'2 0.5 1023.9 17.2
2013-Jun-04 05:30S 34°53' E 063°23'1 0.3 1023.9 17.2
2013-Jun-04 02:30S 34°54' E 063°24'2 0.5 1023.9 17.2
2013-Jun-03 22:30S 34°55' E 063°26'2 0.6 1023.9 17.2
2013-Jun-03 18:30S 34°55' E 063°29'1 0.9 1023.9 17.2
2013-Jun-03 17:30S 34°55' E 063°28'1 0.4 1023.9 17.2
2013-Jun-03 14:30S 34°55' E 063°29'0 0.0 1023.9 17.2
2013-Jun-03 13:30S 34°55' E 063°29'1 0.5 1023.9 17.2
2013-Jun-03 11:30S 34°56' E 063°30'2 2.5 1023.9 17.2
2013-Jun-03 10:30S 34°57' E 063°33'0 0.0 1023.9 17.2
2013-Jun-03 09:30S 34°57' E 063°33'2 0.4 1023.9 17.2
2013-Jun-03 04:30S 34°59' E 063°34'0 0.0 1023.9 17.2
2013-Jun-03 03:30S 34°59' E 063°34'0 0.0 1023.9 17.2
2013-Jun-03 02:30S 34°59' E 063°34'1 0.4 1023.9 17.2
2013-Jun-02 23:30S 34°58' E 063°35'1 1.4 1023.9 17.2
2013-Jun-02 22:30S 34°59' E 063°37'2 0.4 1023.9 17.2
2013-Jun-02 17:30S 34°60' E 063°39'0 0.0 1023.9 17.4
2013-Jun-02 14:30S 34°60' E 063°39'1 0.7 1023.9 17.3
2013-Jun-02 12:30S 35°01' E 063°40'0 0.1 1023.9 17.3
2013-Jun-02 10:30S 35°01' E 063°40'1 1.0 1023.9 17.3
2013-Jun-02 09:30S 35°01' E 063°41'0 0.0 1023.9 17.3
2013-Jun-02 08:30S 35°01' E 063°41'0 0.0 1023.9 17.3
2013-Jun-02 07:30S 35°01' E 063°41'1 1.5 1023.9 17.3
2013-Jun-02 06:30S 35°03' E 063°42'0 0.0 1023.9 17.3
2013-Jun-02 05:30S 35°03' E 063°42'1 1.4 1023.9 17.2
2013-Jun-02 04:30S 35°03' E 063°44'3 2.7 1023.9 17.2
2013-Jun-02 03:30S 35°05' E 063°41'3 1.0 1023.9 17.2
2013-Jun-02 00:30S 35°04' E 063°44'2 1.0 1023.9 17.3
2013-Jun-01 22:30S 35°05' E 063°46'0 0.0 1023.9 17.4
2013-Jun-01 21:30S 35°05' E 063°46'0 0.4 1023.9 17.4
2013-Jun-01 20:30S 35°05' E 063°46'2 1.8 1023.9 17.4
2013-Jun-01 19:30S 35°05' E 063°49'1 0.4 1023.9 17.4
2013-Jun-01 16:30S 35°06' E 063°50'2 0.4 1023.9 17.4
2013-Jun-01 11:30S 35°08' E 063°51'1 1.3 1022.8 17.4
2013-Jun-01 10:30S 35°09' E 063°52'1 1.3 1022.1 17.4
2013-Jun-01 09:30S 35°09' E 063°54'2 0.4 1021.8 17.4
2013-Jun-01 04:30S 35°09' E 063°56'1 0.9 1020.2 17.6
2013-Jun-01 03:30S 35°10' E 063°56'0 0.0 1019.3 17.6
2013-Jun-01 02:30S 35°10' E 063°56'2 0.6 1018.5 17.7
2013-May-31 22:30S 35°12' E 063°58'3 2.7 1016.3 17.8
2013-May-31 21:30S 35°14' E 064°00'0 0.0 1016.1 17.8
2013-May-31 20:30S 35°14' E 064°00'3 2.8 1015.8 17.8
2013-May-31 19:30S 35°17' E 063°60'1 0.3 1015.1 17.8
2013-May-31 14:30S 35°18' E 063°59'0 0.0 1014.0 17.9
2013-May-31 13:30S 35°18' E 063°59'2 0.6 1013.4 17.9
2013-May-31 10:30S 35°20' E 064°00'0 0.0 1012.2 18.0
2013-May-31 09:30S 35°20' E 064°00'2 1.2 1011.7 18.0
2013-May-31 07:30S 35°22' E 064°01'0 0.0 1011.9 18.0
2013-May-31 05:30S 35°22' E 064°01'0 0.0 1012.1 18.0
2013-May-31 04:30S 35°22' E 064°01'5 2.4 1011.9 18.0
2013-May-31 02:30S 35°27' E 064°04'0 0.0 1010.6 18.0
2013-May-30 23:30S 35°27' E 064°04'5 1.0 1009.8 18.0
2013-May-30 18:30S 35°31' E 064°02'0 0.0 1009.2 18.0
2013-May-30 17:30S 35°31' E 064°02'2 0.3 1009.4 18.1
2013-May-30 11:30S 35°33' E 064°02'0 0.0 1008.0 18.1
2013-May-30 10:30S 35°33' E 064°02'0 0.0 1007.9 18.1
2013-May-30 08:30S 35°33' E 064°02'0 0.0 1008.7 18.1
2013-May-30 07:30S 35°33' E 064°02'   1009.4 18.1

Dump ship's entire track history

sailing weather and tide predictions

Buoy 56564